sensor_id;sensor_type;location;lat;lon;timestamp;temperature;humidity
20158;DHT22;10239;56.820;24.416;2023-06-10T00:00:22;12.50;92.40
20158;DHT22;10239;56.820;24.416;2023-06-10T00:02:50;12.50;92.20
20158;DHT22;10239;56.820;24.416;2023-06-10T00:09:50;12.50;92.40
20158;DHT22;10239;56.820;24.416;2023-06-10T00:12:18;12.40;92.70
20158;DHT22;10239;56.820;24.416;2023-06-10T00:14:47;12.40;92.90
20158;DHT22;10239;56.820;24.416;2023-06-10T00:17:17;12.40;93.00
20158;DHT22;10239;56.820;24.416;2023-06-10T00:19:45;12.40;92.90
20158;DHT22;10239;56.820;24.416;2023-06-10T00:22:14;12.30;93.30
20158;DHT22;10239;56.820;24.416;2023-06-10T00:24:42;12.20;93.50
20158;DHT22;10239;56.820;24.416;2023-06-10T00:27:10;12.20;93.70
20158;DHT22;10239;56.820;24.416;2023-06-10T00:29:38;12.20;94.00
20158;DHT22;10239;56.820;24.416;2023-06-10T00:32:06;12.10;94.50
20158;DHT22;10239;56.820;24.416;2023-06-10T00:34:34;12.00;94.90
20158;DHT22;10239;56.820;24.416;2023-06-10T00:37:03;11.90;95.00
20158;DHT22;10239;56.820;24.416;2023-06-10T00:39:30;11.80;95.10
20158;DHT22;10239;56.820;24.416;2023-06-10T00:41:58;11.80;95.60
20158;DHT22;10239;56.820;24.416;2023-06-10T00:44:26;11.80;95.70
20158;DHT22;10239;56.820;24.416;2023-06-10T00:46:54;11.80;95.70
20158;DHT22;10239;56.820;24.416;2023-06-10T00:49:23;11.70;96.00
20158;DHT22;10239;56.820;24.416;2023-06-10T00:51:52;11.70;96.20
20158;DHT22;10239;56.820;24.416;2023-06-10T00:54:21;11.60;96.40
20158;DHT22;10239;56.820;24.416;2023-06-10T00:56:49;11.50;97.10
20158;DHT22;10239;56.820;24.416;2023-06-10T00:59:17;11.50;97.40
20158;DHT22;10239;56.820;24.416;2023-06-10T01:01:46;11.50;97.60
20158;DHT22;10239;56.820;24.416;2023-06-10T01:04:16;11.40;97.80
20158;DHT22;10239;56.820;24.416;2023-06-10T01:09:23;11.40;98.60
20158;DHT22;10239;56.820;24.416;2023-06-10T01:12:31;11.50;98.70
20158;DHT22;10239;56.820;24.416;2023-06-10T01:15:02;11.40;98.80
20158;DHT22;10239;56.820;24.416;2023-06-10T01:17:30;11.40;98.80
20158;DHT22;10239;56.820;24.416;2023-06-10T01:19:59;11.40;99.00
20158;DHT22;10239;56.820;24.416;2023-06-10T01:22:28;11.40;99.60
20158;DHT22;10239;56.820;24.416;2023-06-10T01:24:59;11.30;99.60
20158;DHT22;10239;56.820;24.416;2023-06-10T01:27:32;11.30;99.90
20158;DHT22;10239;56.820;24.416;2023-06-10T01:30:08;11.30;99.90
20158;DHT22;10239;56.820;24.416;2023-06-10T01:32:50;11.30;99.90
20158;DHT22;10239;56.820;24.416;2023-06-10T01:35:19;11.20;99.90
20158;DHT22;10239;56.820;24.416;2023-06-10T01:37:50;11.20;99.90
20158;DHT22;10239;56.820;24.416;2023-06-10T01:40:19;11.30;99.90
20158;DHT22;10239;56.820;24.416;2023-06-10T01:42:47;11.20;99.90
20158;DHT22;10239;56.820;24.416;2023-06-10T01:45:15;11.10;99.90
20158;DHT22;10239;56.820;24.416;2023-06-10T01:47:43;11.10;99.90
20158;DHT22;10239;56.820;24.416;2023-06-10T01:50:10;11.10;99.90
20158;DHT22;10239;56.820;24.416;2023-06-10T01:52:38;11.10;99.90
20158;DHT22;10239;56.820;24.416;2023-06-10T01:55:06;11.10;99.90
20158;DHT22;10239;56.820;24.416;2023-06-10T01:57:34;11.10;99.90
20158;DHT22;10239;56.820;24.416;2023-06-10T02:00:02;11.10;99.90
20158;DHT22;10239;56.820;24.416;2023-06-10T02:02:41;11.10;99.90
20158;DHT22;10239;56.820;24.416;2023-06-10T02:05:09;11.10;99.90
20158;DHT22;10239;56.820;24.416;2023-06-10T02:07:37;11.10;99.90
20158;DHT22;10239;56.820;24.416;2023-06-10T02:10:06;11.00;99.90
20158;DHT22;10239;56.820;24.416;2023-06-10T02:12:34;11.10;99.90
20158;DHT22;10239;56.820;24.416;2023-06-10T02:15:02;11.10;99.90
20158;DHT22;10239;56.820;24.416;2023-06-10T02:17:30;11.10;99.90
20158;DHT22;10239;56.820;24.416;2023-06-10T02:19:58;11.10;99.90
20158;DHT22;10239;56.820;24.416;2023-06-10T02:22:27;11.10;99.90
20158;DHT22;10239;56.820;24.416;2023-06-10T02:24:54;11.10;99.90
20158;DHT22;10239;56.820;24.416;2023-06-10T02:27:23;11.10;99.90
20158;DHT22;10239;56.820;24.416;2023-06-10T02:29:51;11.10;99.90
20158;DHT22;10239;56.820;24.416;2023-06-10T02:32:19;11.10;99.90
20158;DHT22;10239;56.820;24.416;2023-06-10T02:34:47;11.10;99.90
20158;DHT22;10239;56.820;24.416;2023-06-10T02:37:18;11.10;99.90
20158;DHT22;10239;56.820;24.416;2023-06-10T02:39:45;11.10;99.90
20158;DHT22;10239;56.820;24.416;2023-06-10T02:42:14;11.10;99.90
20158;DHT22;10239;56.820;24.416;2023-06-10T02:44:42;11.10;99.90
20158;DHT22;10239;56.820;24.416;2023-06-10T02:47:14;11.20;99.90
20158;DHT22;10239;56.820;24.416;2023-06-10T02:49:41;11.10;99.90
20158;DHT22;10239;56.820;24.416;2023-06-10T02:52:09;11.20;99.90
20158;DHT22;10239;56.820;24.416;2023-06-10T02:54:39;11.20;99.90
20158;DHT22;10239;56.820;24.416;2023-06-10T02:57:08;11.20;99.90
20158;DHT22;10239;56.820;24.416;2023-06-10T02:59:38;11.20;99.90
20158;DHT22;10239;56.820;24.416;2023-06-10T03:02:06;11.30;99.90
20158;DHT22;10239;56.820;24.416;2023-06-10T03:04:40;11.40;99.90
20158;DHT22;10239;56.820;24.416;2023-06-10T03:07:13;11.30;99.90
20158;DHT22;10239;56.820;24.416;2023-06-10T03:09:41;11.40;99.90
20158;DHT22;10239;56.820;24.416;2023-06-10T03:12:13;11.40;99.90
20158;DHT22;10239;56.820;24.416;2023-06-10T03:14:45;11.40;99.90
20158;DHT22;10239;56.820;24.416;2023-06-10T03:17:12;11.50;99.90
20158;DHT22;10239;56.820;24.416;2023-06-10T03:19:42;11.50;99.90
20158;DHT22;10239;56.820;24.416;2023-06-10T03:22:12;11.60;99.90
20158;DHT22;10239;56.820;24.416;2023-06-10T03:24:50;11.60;99.90
20158;DHT22;10239;56.820;24.416;2023-06-10T03:27:19;11.70;99.90
20158;DHT22;10239;56.820;24.416;2023-06-10T03:29:50;11.70;99.90
20158;DHT22;10239;56.820;24.416;2023-06-10T03:32:19;11.80;99.90
20158;DHT22;10239;56.820;24.416;2023-06-10T03:34:46;11.80;99.90
20158;DHT22;10239;56.820;24.416;2023-06-10T03:37:15;11.80;99.90
20158;DHT22;10239;56.820;24.416;2023-06-10T03:39:45;11.90;99.90
20158;DHT22;10239;56.820;24.416;2023-06-10T03:42:13;11.90;99.90
20158;DHT22;10239;56.820;24.416;2023-06-10T03:44:41;11.80;99.90
20158;DHT22;10239;56.820;24.416;2023-06-10T03:47:09;11.90;99.90
20158;DHT22;10239;56.820;24.416;2023-06-10T03:49:37;11.90;99.90
20158;DHT22;10239;56.820;24.416;2023-06-10T03:52:06;12.00;99.90
20158;DHT22;10239;56.820;24.416;2023-06-10T03:54:33;12.10;99.90
20158;DHT22;10239;56.820;24.416;2023-06-10T03:57:02;12.30;99.90
20158;DHT22;10239;56.820;24.416;2023-06-10T03:59:30;12.30;99.90
20158;DHT22;10239;56.820;24.416;2023-06-10T04:01:58;12.30;99.90
20158;DHT22;10239;56.820;24.416;2023-06-10T04:04:26;12.30;99.90
20158;DHT22;10239;56.820;24.416;2023-06-10T04:06:54;12.30;99.90
20158;DHT22;10239;56.820;24.416;2023-06-10T04:09:22;12.50;99.90
20158;DHT22;10239;56.820;24.416;2023-06-10T04:11:50;12.60;99.90
20158;DHT22;10239;56.820;24.416;2023-06-10T04:14:19;12.70;99.90
20158;DHT22;10239;56.820;24.416;2023-06-10T04:16:47;12.80;99.90
20158;DHT22;10239;56.820;24.416;2023-06-10T04:19:15;12.90;99.90
20158;DHT22;10239;56.820;24.416;2023-06-10T04:21:44;13.00;99.90
20158;DHT22;10239;56.820;24.416;2023-06-10T04:24:11;13.10;99.90
20158;DHT22;10239;56.820;24.416;2023-06-10T04:26:39;13.30;99.90
20158;DHT22;10239;56.820;24.416;2023-06-10T04:29:07;13.50;99.90
20158;DHT22;10239;56.820;24.416;2023-06-10T04:31:36;13.60;99.90
20158;DHT22;10239;56.820;24.416;2023-06-10T04:34:04;13.60;99.90
20158;DHT22;10239;56.820;24.416;2023-06-10T04:36:32;13.70;99.90
20158;DHT22;10239;56.820;24.416;2023-06-10T04:39:00;13.70;99.90
20158;DHT22;10239;56.820;24.416;2023-06-10T04:41:30;13.90;99.90
20158;DHT22;10239;56.820;24.416;2023-06-10T04:43:58;14.10;99.90
20158;DHT22;10239;56.820;24.416;2023-06-10T04:46:25;14.40;99.90
20158;DHT22;10239;56.820;24.416;2023-06-10T04:48:54;15.20;99.90
20158;DHT22;10239;56.820;24.416;2023-06-10T04:51:21;16.40;99.90
20158;DHT22;10239;56.820;24.416;2023-06-10T04:53:49;17.40;99.90
20158;DHT22;10239;56.820;24.416;2023-06-10T04:56:17;18.60;99.90
20158;DHT22;10239;56.820;24.416;2023-06-10T04:58:45;19.50;98.30
20158;DHT22;10239;56.820;24.416;2023-06-10T05:01:13;20.40;96.10
20158;DHT22;10239;56.820;24.416;2023-06-10T05:03:41;21.10;94.90
20158;DHT22;10239;56.820;24.416;2023-06-10T05:06:09;21.90;92.10
20158;DHT22;10239;56.820;24.416;2023-06-10T05:08:37;22.30;90.20
20158;DHT22;10239;56.820;24.416;2023-06-10T05:11:05;22.50;87.90
20158;DHT22;10239;56.820;24.416;2023-06-10T05:13:33;22.50;87.60
20158;DHT22;10239;56.820;24.416;2023-06-10T05:16:01;22.70;86.80
20158;DHT22;10239;56.820;24.416;2023-06-10T05:18:30;22.80;86.60
20158;DHT22;10239;56.820;24.416;2023-06-10T05:20:58;23.60;84.10
20158;DHT22;10239;56.820;24.416;2023-06-10T05:23:26;24.10;82.00
20158;DHT22;10239;56.820;24.416;2023-06-10T05:25:54;24.00;82.80
20158;DHT22;10239;56.820;24.416;2023-06-10T05:28:22;24.50;78.70
20158;DHT22;10239;56.820;24.416;2023-06-10T05:30:52;24.70;79.20
20158;DHT22;10239;56.820;24.416;2023-06-10T05:33:20;25.70;76.00
20158;DHT22;10239;56.820;24.416;2023-06-10T05:35:47;25.80;73.80
20158;DHT22;10239;56.820;24.416;2023-06-10T05:38:16;25.90;72.50
20158;DHT22;10239;56.820;24.416;2023-06-10T05:40:45;25.60;71.80
20158;DHT22;10239;56.820;24.416;2023-06-10T05:43:13;25.50;71.80
20158;DHT22;10239;56.820;24.416;2023-06-10T05:45:41;25.40;71.30
20158;DHT22;10239;56.820;24.416;2023-06-10T05:48:09;25.00;71.10
20158;DHT22;10239;56.820;24.416;2023-06-10T05:50:41;25.70;70.80
20158;DHT22;10239;56.820;24.416;2023-06-10T05:53:10;25.80;71.50
20158;DHT22;10239;56.820;24.416;2023-06-10T05:55:43;26.30;68.30
20158;DHT22;10239;56.820;24.416;2023-06-10T05:58:12;26.40;69.00
20158;DHT22;10239;56.820;24.416;2023-06-10T06:00:40;26.70;67.60
20158;DHT22;10239;56.820;24.416;2023-06-10T06:03:09;27.00;66.40
20158;DHT22;10239;56.820;24.416;2023-06-10T06:05:39;27.00;66.40
20158;DHT22;10239;56.820;24.416;2023-06-10T06:08:07;27.10;65.00
20158;DHT22;10239;56.820;24.416;2023-06-10T06:10:35;28.10;64.70
20158;DHT22;10239;56.820;24.416;2023-06-10T06:13:03;27.70;64.30
20158;DHT22;10239;56.820;24.416;2023-06-10T06:15:31;28.20;62.20
20158;DHT22;10239;56.820;24.416;2023-06-10T06:17:59;28.90;60.80
20158;DHT22;10239;56.820;24.416;2023-06-10T06:20:26;28.50;62.30
20158;DHT22;10239;56.820;24.416;2023-06-10T06:22:54;28.50;60.20
20158;DHT22;10239;56.820;24.416;2023-06-10T06:25:22;27.90;61.00
20158;DHT22;10239;56.820;24.416;2023-06-10T06:27:52;28.30;61.00
20158;DHT22;10239;56.820;24.416;2023-06-10T06:30:20;28.40;60.20
20158;DHT22;10239;56.820;24.416;2023-06-10T06:32:48;29.30;57.70
20158;DHT22;10239;56.820;24.416;2023-06-10T06:35:16;29.20;58.30
20158;DHT22;10239;56.820;24.416;2023-06-10T06:37:43;29.80;58.40
20158;DHT22;10239;56.820;24.416;2023-06-10T06:40:17;30.20;56.90
20158;DHT22;10239;56.820;24.416;2023-06-10T06:42:45;30.20;55.20
20158;DHT22;10239;56.820;24.416;2023-06-10T06:45:36;29.90;55.40
20158;DHT22;10239;56.820;24.416;2023-06-10T06:48:05;29.20;56.40
20158;DHT22;10239;56.820;24.416;2023-06-10T06:50:33;29.30;53.70
20158;DHT22;10239;56.820;24.416;2023-06-10T06:53:01;28.70;55.00
20158;DHT22;10239;56.820;24.416;2023-06-10T06:55:28;28.80;56.10
20158;DHT22;10239;56.820;24.416;2023-06-10T06:57:56;29.10;55.40
20158;DHT22;10239;56.820;24.416;2023-06-10T07:00:24;29.10;53.40
20158;DHT22;10239;56.820;24.416;2023-06-10T07:02:52;28.70;54.70
20158;DHT22;10239;56.820;24.416;2023-06-10T07:05:20;28.50;53.40
20158;DHT22;10239;56.820;24.416;2023-06-10T07:07:48;28.00;54.70
20158;DHT22;10239;56.820;24.416;2023-06-10T07:10:24;27.90;54.60
20158;DHT22;10239;56.820;24.416;2023-06-10T07:12:52;27.00;57.70
20158;DHT22;10239;56.820;24.416;2023-06-10T07:15:20;27.50;55.90
20158;DHT22;10239;56.820;24.416;2023-06-10T07:17:48;27.80;54.00
20158;DHT22;10239;56.820;24.416;2023-06-10T07:20:16;27.00;57.70
20158;DHT22;10239;56.820;24.416;2023-06-10T07:22:45;28.10;54.20
20158;DHT22;10239;56.820;24.416;2023-06-10T07:25:13;28.30;54.20
20158;DHT22;10239;56.820;24.416;2023-06-10T07:27:40;28.10;52.70
20158;DHT22;10239;56.820;24.416;2023-06-10T07:30:08;27.70;53.40
20158;DHT22;10239;56.820;24.416;2023-06-10T07:32:36;27.80;53.10
20158;DHT22;10239;56.820;24.416;2023-06-10T07:35:08;27.90;53.10
20158;DHT22;10239;56.820;24.416;2023-06-10T07:37:37;27.50;53.50
20158;DHT22;10239;56.820;24.416;2023-06-10T07:40:05;28.00;53.20
20158;DHT22;10239;56.820;24.416;2023-06-10T07:42:34;28.40;52.30
20158;DHT22;10239;56.820;24.416;2023-06-10T07:45:05;28.40;52.20
20158;DHT22;10239;56.820;24.416;2023-06-10T07:47:34;28.80;52.20
20158;DHT22;10239;56.820;24.416;2023-06-10T07:50:02;29.10;51.00
20158;DHT22;10239;56.820;24.416;2023-06-10T07:52:30;28.70;50.50
20158;DHT22;10239;56.820;24.416;2023-06-10T07:54:58;28.00;52.00
20158;DHT22;10239;56.820;24.416;2023-06-10T07:57:26;28.30;53.20
20158;DHT22;10239;56.820;24.416;2023-06-10T07:59:55;28.50;50.80
20158;DHT22;10239;56.820;24.416;2023-06-10T08:02:24;28.60;51.60
20158;DHT22;10239;56.820;24.416;2023-06-10T08:04:52;29.10;49.50
20158;DHT22;10239;56.820;24.416;2023-06-10T08:07:20;29.00;53.70
20158;DHT22;10239;56.820;24.416;2023-06-10T08:09:49;29.10;50.50
20158;DHT22;10239;56.820;24.416;2023-06-10T08:12:17;29.10;50.70
20158;DHT22;10239;56.820;24.416;2023-06-10T08:14:45;28.80;51.00
20158;DHT22;10239;56.820;24.416;2023-06-10T08:17:13;29.50;51.90
20158;DHT22;10239;56.820;24.416;2023-06-10T08:19:41;29.60;50.30
20158;DHT22;10239;56.820;24.416;2023-06-10T08:22:09;29.10;50.60
20158;DHT22;10239;56.820;24.416;2023-06-10T08:24:37;27.50;51.80
20158;DHT22;10239;56.820;24.416;2023-06-10T08:27:05;27.70;52.50
20158;DHT22;10239;56.820;24.416;2023-06-10T08:29:33;28.70;51.20
20158;DHT22;10239;56.820;24.416;2023-06-10T08:32:01;29.50;50.00
20158;DHT22;10239;56.820;24.416;2023-06-10T08:34:34;29.50;50.60
20158;DHT22;10239;56.820;24.416;2023-06-10T08:37:05;30.10;49.70
20158;DHT22;10239;56.820;24.416;2023-06-10T08:39:33;30.00;50.00
20158;DHT22;10239;56.820;24.416;2023-06-10T08:44:38;30.30;51.00
20158;DHT22;10239;56.820;24.416;2023-06-10T08:47:15;30.50;47.90
20158;DHT22;10239;56.820;24.416;2023-06-10T08:49:45;29.90;48.30
20158;DHT22;10239;56.820;24.416;2023-06-10T08:52:17;29.30;48.90
20158;DHT22;10239;56.820;24.416;2023-06-10T08:55:18;28.90;49.80
20158;DHT22;10239;56.820;24.416;2023-06-10T08:57:47;29.10;50.40
20158;DHT22;10239;56.820;24.416;2023-06-10T09:00:16;28.70;50.10
20158;DHT22;10239;56.820;24.416;2023-06-10T09:02:44;28.20;52.00
20158;DHT22;10239;56.820;24.416;2023-06-10T09:05:13;29.00;51.00
20158;DHT22;10239;56.820;24.416;2023-06-10T09:07:41;29.60;49.80
20158;DHT22;10239;56.820;24.416;2023-06-10T09:10:10;29.50;48.60
20158;DHT22;10239;56.820;24.416;2023-06-10T09:12:39;29.70;49.80
20158;DHT22;10239;56.820;24.416;2023-06-10T09:15:07;29.60;48.60
20158;DHT22;10239;56.820;24.416;2023-06-10T09:17:35;29.80;48.40
20158;DHT22;10239;56.820;24.416;2023-06-10T09:20:08;29.90;48.10
20158;DHT22;10239;56.820;24.416;2023-06-10T09:22:37;29.90;46.90
20158;DHT22;10239;56.820;24.416;2023-06-10T09:25:07;29.70;47.90
20158;DHT22;10239;56.820;24.416;2023-06-10T09:27:50;29.00;51.40
20158;DHT22;10239;56.820;24.416;2023-06-10T09:30:32;29.30;48.10
20158;DHT22;10239;56.820;24.416;2023-06-10T09:33:02;29.10;48.60
20158;DHT22;10239;56.820;24.416;2023-06-10T09:35:32;29.30;48.00
20158;DHT22;10239;56.820;24.416;2023-06-10T09:38:00;28.50;48.40
20158;DHT22;10239;56.820;24.416;2023-06-10T09:40:29;28.10;48.80
20158;DHT22;10239;56.820;24.416;2023-06-10T09:42:59;28.00;49.10
20158;DHT22;10239;56.820;24.416;2023-06-10T09:45:31;28.10;48.20
20158;DHT22;10239;56.820;24.416;2023-06-10T09:48:00;27.20;49.70
20158;DHT22;10239;56.820;24.416;2023-06-10T09:50:33;27.20;50.50
20158;DHT22;10239;56.820;24.416;2023-06-10T09:53:02;27.00;50.50
20158;DHT22;10239;56.820;24.416;2023-06-10T09:55:33;26.80;51.20
20158;DHT22;10239;56.820;24.416;2023-06-10T09:58:01;27.20;51.20
20158;DHT22;10239;56.820;24.416;2023-06-10T10:00:32;27.60;50.20
20158;DHT22;10239;56.820;24.416;2023-06-10T10:03:00;27.80;50.50
20158;DHT22;10239;56.820;24.416;2023-06-10T10:05:28;27.80;49.50
20158;DHT22;10239;56.820;24.416;2023-06-10T10:07:57;28.00;50.10
20158;DHT22;10239;56.820;24.416;2023-06-10T10:10:25;28.10;49.60
20158;DHT22;10239;56.820;24.416;2023-06-10T10:12:56;27.60;48.40
20158;DHT22;10239;56.820;24.416;2023-06-10T10:15:29;27.20;50.90
20158;DHT22;10239;56.820;24.416;2023-06-10T10:18:14;27.60;49.20
20158;DHT22;10239;56.820;24.416;2023-06-10T10:20:50;27.90;49.40
20158;DHT22;10239;56.820;24.416;2023-06-10T10:23:24;27.70;49.50
20158;DHT22;10239;56.820;24.416;2023-06-10T10:25:54;27.60;50.10
20158;DHT22;10239;56.820;24.416;2023-06-10T10:28:24;27.60;50.50
20158;DHT22;10239;56.820;24.416;2023-06-10T10:30:59;27.40;50.40
20158;DHT22;10239;56.820;24.416;2023-06-10T10:33:48;27.30;49.70
20158;DHT22;10239;56.820;24.416;2023-06-10T10:36:18;26.90;51.60
20158;DHT22;10239;56.820;24.416;2023-06-10T10:38:48;27.30;50.00
20158;DHT22;10239;56.820;24.416;2023-06-10T10:41:20;27.30;50.60
20158;DHT22;10239;56.820;24.416;2023-06-10T10:43:49;27.30;49.00
20158;DHT22;10239;56.820;24.416;2023-06-10T10:46:19;27.20;50.10
20158;DHT22;10239;56.820;24.416;2023-06-10T10:48:52;27.20;52.30
20158;DHT22;10239;56.820;24.416;2023-06-10T10:51:23;27.40;49.50
20158;DHT22;10239;56.820;24.416;2023-06-10T10:54:14;27.40;52.00
20158;DHT22;10239;56.820;24.416;2023-06-10T10:57:11;27.10;50.80
20158;DHT22;10239;56.820;24.416;2023-06-10T10:59:55;26.60;50.70
20158;DHT22;10239;56.820;24.416;2023-06-10T11:05:01;26.30;50.50
20158;DHT22;10239;56.820;24.416;2023-06-10T11:07:33;26.00;51.60
20158;DHT22;10239;56.820;24.416;2023-06-10T11:15:17;26.20;54.70
20158;DHT22;10239;56.820;24.416;2023-06-10T11:21:03;25.50;52.00
20158;DHT22;10239;56.820;24.416;2023-06-10T11:23:33;25.70;52.50
20158;DHT22;10239;56.820;24.416;2023-06-10T11:31:30;25.60;53.30
20158;DHT22;10239;56.820;24.416;2023-06-10T11:34:03;25.30;54.40
20158;DHT22;10239;56.820;24.416;2023-06-10T11:36:34;25.30;53.70
20158;DHT22;10239;56.820;24.416;2023-06-10T11:39:04;25.20;53.10
20158;DHT22;10239;56.820;24.416;2023-06-10T11:41:34;24.90;53.10
20158;DHT22;10239;56.820;24.416;2023-06-10T11:44:12;25.00;53.30
20158;DHT22;10239;56.820;24.416;2023-06-10T11:46:48;24.80;53.40
20158;DHT22;10239;56.820;24.416;2023-06-10T11:49:16;24.20;53.30
20158;DHT22;10239;56.820;24.416;2023-06-10T11:51:43;23.70;54.20
20158;DHT22;10239;56.820;24.416;2023-06-10T11:54:17;23.80;54.50
20158;DHT22;10239;56.820;24.416;2023-06-10T11:56:46;23.90;54.00
20158;DHT22;10239;56.820;24.416;2023-06-10T11:59:15;23.70;57.10
20158;DHT22;10239;56.820;24.416;2023-06-10T12:01:44;24.10;54.10
20158;DHT22;10239;56.820;24.416;2023-06-10T12:04:14;24.20;55.00
20158;DHT22;10239;56.820;24.416;2023-06-10T12:06:48;24.10;54.90
20158;DHT22;10239;56.820;24.416;2023-06-10T12:09:19;24.30;56.00
20158;DHT22;10239;56.820;24.416;2023-06-10T12:12:06;24.50;55.30
20158;DHT22;10239;56.820;24.416;2023-06-10T12:14:54;24.30;54.40
20158;DHT22;10239;56.820;24.416;2023-06-10T12:17:37;23.90;54.30
20158;DHT22;10239;56.820;24.416;2023-06-10T12:20:25;23.80;57.10
20158;DHT22;10239;56.820;24.416;2023-06-10T12:22:53;23.80;55.30
20158;DHT22;10239;56.820;24.416;2023-06-10T12:25:25;23.60;56.30
20158;DHT22;10239;56.820;24.416;2023-06-10T12:27:57;23.30;54.50
20158;DHT22;10239;56.820;24.416;2023-06-10T12:30:27;23.00;54.80
20158;DHT22;10239;56.820;24.416;2023-06-10T12:32:56;22.80;54.80
20158;DHT22;10239;56.820;24.416;2023-06-10T12:35:25;23.00;55.70
20158;DHT22;10239;56.820;24.416;2023-06-10T12:38:06;22.80;57.20
20158;DHT22;10239;56.820;24.416;2023-06-10T12:40:38;22.80;58.20
20158;DHT22;10239;56.820;24.416;2023-06-10T12:43:09;23.00;57.20
20158;DHT22;10239;56.820;24.416;2023-06-10T12:45:39;22.90;55.40
20158;DHT22;10239;56.820;24.416;2023-06-10T12:48:17;23.10;57.00
20158;DHT22;10239;56.820;24.416;2023-06-10T12:50:46;23.20;55.80
20158;DHT22;10239;56.820;24.416;2023-06-10T12:53:14;23.30;55.60
20158;DHT22;10239;56.820;24.416;2023-06-10T12:55:43;23.30;54.60
20158;DHT22;10239;56.820;24.416;2023-06-10T12:58:13;23.10;54.40
20158;DHT22;10239;56.820;24.416;2023-06-10T13:00:41;23.00;54.40
20158;DHT22;10239;56.820;24.416;2023-06-10T13:03:10;23.00;56.20
20158;DHT22;10239;56.820;24.416;2023-06-10T13:05:38;23.10;56.20
20158;DHT22;10239;56.820;24.416;2023-06-10T13:08:07;23.20;55.80
20158;DHT22;10239;56.820;24.416;2023-06-10T13:10:35;23.30;56.30
20158;DHT22;10239;56.820;24.416;2023-06-10T13:13:03;23.20;57.50
20158;DHT22;10239;56.820;24.416;2023-06-10T13:15:37;23.20;57.30
20158;DHT22;10239;56.820;24.416;2023-06-10T13:18:09;23.20;56.70
20158;DHT22;10239;56.820;24.416;2023-06-10T13:20:38;23.40;56.30
20158;DHT22;10239;56.820;24.416;2023-06-10T13:23:06;23.50;55.60
20158;DHT22;10239;56.820;24.416;2023-06-10T13:25:34;23.20;58.80
20158;DHT22;10239;56.820;24.416;2023-06-10T13:28:02;23.00;55.50
20158;DHT22;10239;56.820;24.416;2023-06-10T13:30:30;22.90;57.50
20158;DHT22;10239;56.820;24.416;2023-06-10T13:32:58;22.80;56.50
20158;DHT22;10239;56.820;24.416;2023-06-10T13:35:25;22.70;56.50
20158;DHT22;10239;56.820;24.416;2023-06-10T13:37:53;22.70;57.10
20158;DHT22;10239;56.820;24.416;2023-06-10T13:40:21;22.70;56.50
20158;DHT22;10239;56.820;24.416;2023-06-10T13:42:49;22.70;57.30
20158;DHT22;10239;56.820;24.416;2023-06-10T13:45:18;22.60;57.70
20158;DHT22;10239;56.820;24.416;2023-06-10T13:47:45;22.60;60.00
20158;DHT22;10239;56.820;24.416;2023-06-10T13:50:13;22.80;57.50
20158;DHT22;10239;56.820;24.416;2023-06-10T13:52:41;22.90;57.10
20158;DHT22;10239;56.820;24.416;2023-06-10T13:55:09;23.00;58.20
20158;DHT22;10239;56.820;24.416;2023-06-10T13:57:37;23.00;58.30
20158;DHT22;10239;56.820;24.416;2023-06-10T14:00:05;23.00;57.20
20158;DHT22;10239;56.820;24.416;2023-06-10T14:02:33;22.90;59.70
20158;DHT22;10239;56.820;24.416;2023-06-10T14:05:00;22.80;58.80
20158;DHT22;10239;56.820;24.416;2023-06-10T14:07:29;22.90;60.30
20158;DHT22;10239;56.820;24.416;2023-06-10T14:09:56;23.00;57.90
20158;DHT22;10239;56.820;24.416;2023-06-10T14:12:24;22.80;57.50
20158;DHT22;10239;56.820;24.416;2023-06-10T14:14:54;22.60;58.70
20158;DHT22;10239;56.820;24.416;2023-06-10T14:17:22;22.60;58.10
20158;DHT22;10239;56.820;24.416;2023-06-10T14:19:50;22.60;58.70
20158;DHT22;10239;56.820;24.416;2023-06-10T14:22:18;22.60;59.20
20158;DHT22;10239;56.820;24.416;2023-06-10T14:24:46;22.60;59.00
20158;DHT22;10239;56.820;24.416;2023-06-10T14:27:14;22.70;58.80
20158;DHT22;10239;56.820;24.416;2023-06-10T14:29:42;22.70;57.90
20158;DHT22;10239;56.820;24.416;2023-06-10T14:32:10;22.70;57.30
20158;DHT22;10239;56.820;24.416;2023-06-10T14:34:37;22.50;58.10
20158;DHT22;10239;56.820;24.416;2023-06-10T14:37:06;22.20;57.90
20158;DHT22;10239;56.820;24.416;2023-06-10T14:39:36;22.30;57.80
20158;DHT22;10239;56.820;24.416;2023-06-10T14:42:04;22.30;58.40
20158;DHT22;10239;56.820;24.416;2023-06-10T14:44:32;22.30;59.00
20158;DHT22;10239;56.820;24.416;2023-06-10T14:47:00;22.20;59.50
20158;DHT22;10239;56.820;24.416;2023-06-10T14:49:27;22.40;57.50
20158;DHT22;10239;56.820;24.416;2023-06-10T14:51:55;22.10;57.90
20158;DHT22;10239;56.820;24.416;2023-06-10T14:54:23;22.10;58.60
20158;DHT22;10239;56.820;24.416;2023-06-10T14:56:51;22.10;59.50
20158;DHT22;10239;56.820;24.416;2023-06-10T14:59:19;22.10;60.00
20158;DHT22;10239;56.820;24.416;2023-06-10T15:01:46;22.10;60.20
20158;DHT22;10239;56.820;24.416;2023-06-10T15:04:14;22.00;59.90
20158;DHT22;10239;56.820;24.416;2023-06-10T15:06:42;22.00;59.30
20158;DHT22;10239;56.820;24.416;2023-06-10T15:09:10;21.90;59.70
20158;DHT22;10239;56.820;24.416;2023-06-10T15:11:38;21.70;59.40
20158;DHT22;10239;56.820;24.416;2023-06-10T15:14:06;21.70;61.50
20158;DHT22;10239;56.820;24.416;2023-06-10T15:16:34;21.60;60.50
20158;DHT22;10239;56.820;24.416;2023-06-10T15:19:01;21.50;59.80
20158;DHT22;10239;56.820;24.416;2023-06-10T15:21:29;21.50;60.40
20158;DHT22;10239;56.820;24.416;2023-06-10T15:23:57;21.50;59.90
20158;DHT22;10239;56.820;24.416;2023-06-10T15:26:24;21.50;60.30
20158;DHT22;10239;56.820;24.416;2023-06-10T15:28:53;21.50;60.40
20158;DHT22;10239;56.820;24.416;2023-06-10T15:31:21;21.40;60.20
20158;DHT22;10239;56.820;24.416;2023-06-10T15:33:48;21.60;62.30
20158;DHT22;10239;56.820;24.416;2023-06-10T15:36:16;21.50;62.40
20158;DHT22;10239;56.820;24.416;2023-06-10T15:38:44;21.70;60.50
20158;DHT22;10239;56.820;24.416;2023-06-10T15:41:13;21.60;59.60
20158;DHT22;10239;56.820;24.416;2023-06-10T15:43:41;21.50;61.10
20158;DHT22;10239;56.820;24.416;2023-06-10T15:46:09;21.40;60.50
20158;DHT22;10239;56.820;24.416;2023-06-10T15:48:36;21.40;60.60
20158;DHT22;10239;56.820;24.416;2023-06-10T15:51:04;21.30;59.50
20158;DHT22;10239;56.820;24.416;2023-06-10T15:53:32;21.30;59.80
20158;DHT22;10239;56.820;24.416;2023-06-10T15:55:59;21.30;59.30